Time;durP1;ratioP1;P1;durP2;ratioP2;P2;SDS_P1;SDS_P2;PMS_P1;PMS_P2;Temp;Humidity;BMP_temperature;BMP_pressure;BME280_temperature;BME280_humidity;BME280_pressure;Samples;Min_cycle;Max_cycle;Signal;HPM_P1;HPM_P2
2022/10/12 05:59:52;;;;;;;12.50;6.45;;;;;;;;;;6159865;22;20052;-89
2022/10/12 06:02:18;;;;;;;6.45;5.75;;;;;;;;;;6220052;23;20012;-81
2022/10/12 06:04:44;;;;;;;6.40;5.80;;;;;;;;;;6246867;23;20011;-81
2022/10/12 06:07:09;;;;;;;8.55;6.43;;;;;;;;;;6247234;22;20407;-90
2022/10/12 09:30:29;;;;;;;6.23;4.60;;;;;;;;;;6215037;23;20028;-87
2022/10/12 09:33:11;;;;;;;5.68;4.50;;;;;;;;;;6248949;23;20018;-95
2022/10/12 09:35:38;;;;;;;6.25;5.07;;;;;;;;;;6222268;23;20008;-94
2022/10/12 09:38:05;;;;;;;5.80;4.35;;;;;;;;;;6221615;23;20308;-90
2022/10/12 09:40:31;;;;;;;5.97;4.38;;;;;;;;;;6247603;23;20095;-87
2022/10/12 09:43:00;;;;;;;7.57;4.55;;;;;;;;;;6249924;23;20119;-90
2022/10/12 09:45:27;;;;;;;6.45;4.97;;;;;;;;;;6247843;23;20072;-87
2022/10/12 09:48:16;;;;;;;5.03;4.53;;;;;;;;;;6250734;22;20053;-89
2022/10/12 09:50:46;;;;;;;5.68;5.10;;;;;;;;;;6247200;23;20071;-90
2022/10/12 09:53:22;;;;;;;6.30;4.32;;;;;;;;;;6247019;23;20055;-89
2022/10/12 09:56:01;;;;;;;6.68;5.13;;;;;;;;;;6246895;23;20011;-88
2022/10/12 09:58:28;;;;;;;6.05;5.43;;;;;;;;;;6246964;22;20377;-89
2022/10/12 10:01:18;;;;;;;8.70;4.72;;;;;;;;;;6220444;23;20000;-93
2022/10/12 10:03:47;;;;;;;5.38;4.88;;;;;;;;;;6223114;23;20008;-85
2022/10/12 10:06:14;;;;;;;5.30;4.70;;;;;;;;;;6247169;22;20430;-87
2022/10/12 10:08:44;;;;;;;7.47;4.80;;;;;;;;;;6220688;23;20087;-90
2022/10/12 10:11:26;;;;;;;7.57;4.28;;;;;;;;;;6247202;23;20011;-90
2022/10/12 10:13:53;;;;;;;5.85;5.18;;;;;;;;;;6247707;23;20007;-90
2022/10/12 10:16:22;;;;;;;4.80;4.32;;;;;;;;;;6250244;22;20011;-90
2022/10/12 10:19:00;;;;;;;5.90;5.35;;;;;;;;;;6221009;23;20000;-89
2022/10/12 10:21:33;;;;;;;7.07;4.55;;;;;;;;;;6247686;23;20004;-91
2022/10/12 10:24:03;;;;;;;6.43;4.90;;;;;;;;;;6220127;23;20007;-92
2022/10/12 10:26:50;;;;;;;5.72;4.60;;;;;;;;;;6247581;22;19997;-90
2022/10/12 10:29:27;;;;;;;4.90;4.40;;;;;;;;;;6247245;23;20045;-90
2022/10/12 10:32:25;;;;;;;5.57;4.40;;;;;;;;;;6220361;23;20012;-87
2022/10/12 10:35:13;;;;;;;7.25;4.32;;;;;;;;;;6164474;23;20007;-87
2022/10/12 10:37:44;;;;;;;6.80;4.25;;;;;;;;;;6220383;23;20346;-92
2022/10/12 10:40:19;;;;;;;6.28;3.90;;;;;;;;;;6246832;23;20423;-89
2022/10/12 10:42:50;;;;;;;6.10;4.07;;;;;;;;;;6247027;23;20000;-91
2022/10/12 10:45:49;;;;;;;6.03;4.38;;;;;;;;;;6247086;23;20007;-86
2022/10/12 10:48:18;;;;;;;6.32;4.47;;;;;;;;;;6218349;23;20015;-86
2022/10/12 10:50:55;;;;;;;7.28;4.78;;;;;;;;;;6246597;23;20000;-86
2022/10/12 10:53:23;;;;;;;6.50;4.45;;;;;;;;;;6246703;23;20442;-88
2022/10/12 10:55:58;;;;;;;4.50;4.10;;;;;;;;;;6246736;23;20015;-86
2022/10/12 10:58:36;;;;;;;4.75;4.30;;;;;;;;;;6247331;22;20265;-93
2022/10/12 11:01:18;;;;;;;5.75;5.18;;;;;;;;;;6220046;23;20095;-78
2022/10/12 11:04:13;;;;;;;5.85;4.50;;;;;;;;;;6246885;23;20092;-82
2022/10/12 11:06:42;;;;;;;9.95;5.03;;;;;;;;;;6249489;22;20001;-79
2022/10/12 11:09:28;;;;;;;10.02;5.85;;;;;;;;;;6250090;23;20004;-78
2022/10/12 11:12:00;;;;;;;6.35;4.82;;;;;;;;;;6198764;23;20083;-78
2022/10/12 11:14:48;;;;;;;5.60;5.07;;;;;;;;;;6250066;23;20083;-79
2022/10/12 11:17:20;;;;;;;7.35;5.45;;;;;;;;;;6250067;22;19992;-78
2022/10/12 11:20:02;;;;;;;5.80;5.30;;;;;;;;;;6249668;23;20370;-81
2022/10/12 11:23:00;;;;;;;6.85;5.07;;;;;;;;;;6250081;23;20497;-79
2022/10/12 11:25:38;;;;;;;6.60;5.20;;;;;;;;;;6249792;23;20319;-80
2022/10/12 11:28:06;;;;;;;6.77;5.23;;;;;;;;;;6249667;22;20003;-79
2022/10/12 11:30:40;;;;;;;7.60;5.47;;;;;;;;;;6249545;23;20162;-79
2022/10/12 11:33:12;;;;;;;9.00;5.38;;;;;;;;;;6250075;23;20319;-81
2022/10/12 11:35:41;;;;;;;5.40;4.80;;;;;;;;;;6249599;23;20077;-81
2022/10/12 11:38:14;;;;;;;5.55;4.95;;;;;;;;;;6249639;22;20066;-83
2022/10/12 11:40:52;;;;;;;7.43;5.50;;;;;;;;;;6249634;23;20442;-86
2022/10/12 11:43:33;;;;;;;5.63;5.00;;;;;;;;;;6249462;23;20014;-81
2022/10/12 11:46:04;;;;;;;7.78;5.60;;;;;;;;;;6249259;23;20000;-79
2022/10/12 17:40:22;;;;;;;12.05;7.63;;;;;;;;;;6184639;23;20028;-78
2022/10/12 17:42:48;;;;;;;10.38;7.03;;;;;;;;;;6186774;23;20332;-81
2022/10/12 17:45:13;;;;;;;8.55;6.15;;;;;;;;;;6186800;23;20052;-81
2022/10/12 17:47:39;;;;;;;8.18;6.13;;;;;;;;;;6207690;23;20439;-78
2022/10/12 17:50:05;;;;;;;8.77;6.68;;;;;;;;;;6216589;23;20005;-77
2022/10/12 17:52:30;;;;;;;8.50;6.65;;;;;;;;;;6216561;23;20027;-78
2022/10/12 17:54:55;;;;;;;9.75;7.18;;;;;;;;;;6217058;23;20442;-83
2022/10/12 17:57:21;;;;;;;9.95;6.80;;;;;;;;;;6216446;23;20000;-80
2022/10/12 17:59:46;;;;;;;10.95;6.90;;;;;;;;;;6216594;23;20012;-80
2022/10/12 18:02:12;;;;;;;10.07;6.78;;;;;;;;;;6216814;23;20000;-79
2022/10/12 18:04:37;;;;;;;14.80;7.30;;;;;;;;;;6216446;23;20005;-80
2022/10/12 18:07:02;;;;;;;8.82;6.35;;;;;;;;;;6216706;23;20004;-81
2022/10/12 18:09:28;;;;;;;10.32;6.20;;;;;;;;;;6216752;23;20005;-81
2022/10/12 18:11:53;;;;;;;9.60;7.43;;;;;;;;;;6216718;23;20012;-81
2022/10/12 18:14:19;;;;;;;7.50;5.97;;;;;;;;;;6216715;23;20336;-82
2022/10/12 18:16:44;;;;;;;8.48;6.05;;;;;;;;;;6216161;23;20005;-80
2022/10/12 18:19:10;;;;;;;10.55;7.38;;;;;;;;;;6216589;23;20332;-83
2022/10/12 18:21:36;;;;;;;8.73;7.05;;;;;;;;;;6216440;23;20005;-76
2022/10/12 18:24:05;;;;;;;8.38;6.63;;;;;;;;;;6216242;23;20001;-78
2022/10/12 18:26:31;;;;;;;10.00;7.03;;;;;;;;;;6216347;23;20001;-78
2022/10/12 18:28:59;;;;;;;8.45;7.22;;;;;;;;;;6216656;23;20015;-77
2022/10/12 18:31:26;;;;;;;7.88;6.30;;;;;;;;;;6216458;23;20471;-81
2022/10/12 18:33:52;;;;;;;8.70;6.25;;;;;;;;;;6216182;23;20005;-81
2022/10/12 18:36:19;;;;;;;7.25;6.55;;;;;;;;;;6216604;23;19996;-78
2022/10/12 18:38:45;;;;;;;7.85;7.03;;;;;;;;;;6216762;23;20367;-78
2022/10/12 18:41:15;;;;;;;8.45;6.57;;;;;;;;;;6216849;23;20013;-78
2022/10/12 18:43:41;;;;;;;11.32;6.97;;;;;;;;;;6216044;23;20032;-77
2022/10/12 18:46:12;;;;;;;10.27;7.90;;;;;;;;;;6215981;23;20052;-77
2022/10/12 18:48:38;;;;;;;8.07;6.40;;;;;;;;;;6216597;23;20360;-78
2022/10/12 18:51:32;;;;;;;9.25;7.03;;;;;;;;;;6216345;23;20056;-77
2022/10/12 18:53:58;;;;;;;8.88;6.72;;;;;;;;;;6201150;23;20013;-78
2022/10/12 18:56:24;;;;;;;8.60;7.47;;;;;;;;;;6189361;23;20001;-77
2022/10/12 18:58:50;;;;;;;8.18;6.32;;;;;;;;;;6216668;23;20008;-77
2022/10/12 19:01:19;;;;;;;10.05;7.60;;;;;;;;;;6189382;23;20051;-77
2022/10/12 19:03:45;;;;;;;9.52;6.45;;;;;;;;;;6216178;23;20008;-77
2022/10/12 19:06:13;;;;;;;8.88;7.97;;;;;;;;;;6215917;23;20051;-77
2022/10/12 19:08:39;;;;;;;8.40;7.47;;;;;;;;;;6215984;23;20004;-76
2022/10/12 19:11:07;;;;;;;11.13;7.90;;;;;;;;;;6215804;23;20004;-77
2022/10/12 19:13:34;;;;;;;7.82;7.07;;;;;;;;;;6189441;23;20400;-77
2022/10/12 19:16:04;;;;;;;10.57;6.93;;;;;;;;;;6189890;23;20039;-77
2022/10/12 19:18:30;;;;;;;11.65;7.53;;;;;;;;;;6216003;23;20000;-82
2022/10/12 19:20:55;;;;;;;12.43;8.57;;;;;;;;;;6189336;23;20015;-79
2022/10/12 19:23:21;;;;;;;12.55;8.80;;;;;;;;;;6216112;23;20324;-80
2022/10/12 19:25:47;;;;;;;12.60;8.57;;;;;;;;;;6189393;23;20036;-78
2022/10/12 19:28:12;;;;;;;12.25;9.40;;;;;;;;;;6218068;23;20320;-77
2022/10/12 19:30:40;;;;;;;12.85;9.40;;;;;;;;;;6191541;23;20087;-77
2022/10/12 19:33:06;;;;;;;12.85;9.43;;;;;;;;;;6218106;23;20424;-78
2022/10/12 19:35:35;;;;;;;11.13;8.50;;;;;;;;;;6218053;23;20000;-77
2022/10/12 19:38:01;;;;;;;;;;;;;;;;;;6218280;23;20008;-78
2022/10/12 19:40:26;;;;;;;11.27;7.07;;;;;;;;;;6217723;23;19912;-78
2022/10/12 19:42:51;;;;;;;11.20;6.57;;;;;;;;;;6218125;23;20004;-78
2022/10/12 19:45:17;;;;;;;9.45;7.20;;;;;;;;;;6217788;23;20005;-85
2022/10/12 19:47:42;;;;;;;10.73;7.38;;;;;;;;;;6217792;23;20011;-79
2022/10/12 19:50:08;;;;;;;10.60;8.77;;;;;;;;;;6218011;23;20488;-78
2022/10/12 19:52:34;;;;;;;12.15;8.43;;;;;;;;;;6218013;23;20538;-79
2022/10/12 19:54:59;;;;;;;10.30;8.43;;;;;;;;;;6217664;23;20032;-79
2022/10/12 19:57:24;;;;;;;9.77;8.77;;;;;;;;;;6217748;23;20000;-78
2022/10/12 19:59:50;;;;;;;11.00;7.70;;;;;;;;;;6217992;23;20001;-79
2022/10/12 20:02:15;;;;;;;14.38;9.02;;;;;;;;;;6190986;23;20013;-80
2022/10/12 20:04:42;;;;;;;13.27;10.80;;;;;;;;;;6217615;23;20067;-79
2022/10/12 20:07:07;;;;;;;11.52;10.07;;;;;;;;;;6217689;23;20024;-77
2022/10/12 20:09:33;;;;;;;11.68;10.10;;;;;;;;;;6216512;23;20001;-77
2022/10/12 20:11:58;;;;;;;13.00;10.85;;;;;;;;;;6217529;23;20009;-78
2022/10/12 20:14:24;;;;;;;12.35;11.02;;;;;;;;;;6217214;23;20012;-78
2022/10/12 20:16:50;;;;;;;11.20;9.02;;;;;;;;;;6217320;23;20335;-80
2022/10/12 20:19:15;;;;;;;11.30;7.85;;;;;;;;;;6218691;23;20071;-77
2022/10/12 20:21:41;;;;;;;11.05;8.60;;;;;;;;;;6219109;23;20083;-81
2022/10/12 20:24:09;;;;;;;10.10;7.93;;;;;;;;;;6218970;23;20416;-78
2022/10/12 20:26:35;;;;;;;11.73;8.80;;;;;;;;;;6221920;23;20040;-77
2022/10/12 20:29:00;;;;;;;15.43;11.13;;;;;;;;;;6219163;23;20009;-77
2022/10/12 20:31:26;;;;;;;20.90;14.70;;;;;;;;;;6220232;23;20007;-80
2022/10/12 20:33:53;;;;;;;13.93;9.20;;;;;;;;;;6217229;23;20004;-77
2022/10/12 20:36:22;;;;;;;12.30;8.13;;;;;;;;;;6217397;23;20004;-77
2022/10/12 20:38:48;;;;;;;9.98;7.43;;;;;;;;;;6217042;23;20027;-82
2022/10/12 20:41:16;;;;;;;10.93;7.22;;;;;;;;;;6217010;23;20013;-77
2022/10/12 20:43:41;;;;;;;10.20;7.65;;;;;;;;;;6217075;23;20012;-77
2022/10/12 20:46:11;;;;;;;7.95;6.95;;;;;;;;;;6216975;23;20004;-82
2022/10/12 20:48:38;;;;;;;8.80;7.90;;;;;;;;;;6217238;23;20005;-77
2022/10/12 20:51:06;;;;;;;9.73;8.23;;;;;;;;;;6217286;23;20082;-78
2022/10/12 20:53:33;;;;;;;10.25;8.50;;;;;;;;;;6217364;23;20032;-77
2022/10/12 20:55:58;;;;;;;15.48;8.65;;;;;;;;;;6216940;23;20005;-76
2022/10/12 20:58:24;;;;;;;10.90;8.10;;;;;;;;;;6216879;23;20011;-80
2022/10/12 21:00:49;;;;;;;12.82;9.20;;;;;;;;;;6216989;23;20004;-84
2022/10/12 21:03:15;;;;;;;10.90;8.27;;;;;;;;;;6216984;23;20052;-76
2022/10/12 21:05:40;;;;;;;9.93;8.38;;;;;;;;;;6216903;23;20048;-80
2022/10/12 21:08:05;;;;;;;11.27;7.72;;;;;;;;;;6216738;23;20005;-77
2022/10/12 21:10:31;;;;;;;9.13;7.25;;;;;;;;;;6216943;23;20097;-79
2022/10/12 21:12:56;;;;;;;9.77;7.70;;;;;;;;;;6216807;23;20032;-78
2022/10/12 21:15:22;;;;;;;12.68;8.77;;;;;;;;;;6216962;23;20005;-77
2022/10/12 21:17:47;;;;;;;9.68;8.68;;;;;;;;;;6216613;23;20004;-77
2022/10/12 21:20:13;;;;;;;9.85;7.60;;;;;;;;;;6216909;23;20015;-78
2022/10/12 21:22:38;;;;;;;12.40;8.75;;;;;;;;;;6217065;23;20008;-77
2022/10/12 21:25:04;;;;;;;11.10;8.75;;;;;;;;;;6216741;23;20020;-76
2022/10/12 21:27:29;;;;;;;13.68;8.88;;;;;;;;;;6190129;23;20001;-77
2022/10/12 21:29:55;;;;;;;12.52;9.68;;;;;;;;;;6216911;23;20004;-76
2022/10/12 21:32:20;;;;;;;12.57;9.80;;;;;;;;;;6216883;23;20051;-76
2022/10/12 21:34:47;;;;;;;10.05;8.77;;;;;;;;;;6216484;23;20004;-77
2022/10/12 21:37:12;;;;;;;10.63;8.55;;;;;;;;;;6216659;23;20001;-77
2022/10/12 21:39:38;;;;;;;12.85;9.90;;;;;;;;;;6216874;23;20011;-77
2022/10/12 21:42:03;;;;;;;12.70;9.60;;;;;;;;;;6216933;23;20004;-77
2022/10/12 21:44:28;;;;;;;10.70;8.75;;;;;;;;;;6217010;23;20005;-77
2022/10/12 21:46:54;;;;;;;12.90;8.93;;;;;;;;;;6190244;23;20035;-77
2022/10/12 21:49:19;;;;;;;14.63;9.77;;;;;;;;;;6216423;23;20005;-77
2022/10/12 21:51:45;;;;;;;14.43;10.23;;;;;;;;;;6216427;23;20004;-76
2022/10/12 21:54:10;;;;;;;11.07;8.77;;;;;;;;;;6216623;23;20004;-76
2022/10/12 21:56:36;;;;;;;13.48;8.32;;;;;;;;;;6216590;23;20005;-76
2022/10/12 21:59:03;;;;;;;11.75;8.30;;;;;;;;;;6216785;23;20011;-76
2022/10/12 22:01:34;;;;;;;12.43;9.05;;;;;;;;;;6216576;23;20008;-77
